Terminal Aerodrome Forecast
Issued by NWS

Home | Current Version | Previous Version | Text Only | Print | Product List | Glossary On
Versions: 1 2 3 4 5 6 7 8 9 10 11 12 13 14 15 16 17 18 19 20 21 22 23 24 25
000
FTUS45 KREV 231100
TAFRNO
TAF
KRNO 231120Z 2312/2412 VRB04KT P6SM SCT140 BKN180
     FM232000 23010G20KT P6SM BKN180
     FM240100 30008KT P6SM SCT180
     FM240600 VRB03KT P6SM SKC=

USA.gov is the U.S. government's official web portal to all federal, state and local government web resources and services.